Time,TemperatureF,DewpointF,PressureIn,WindDirection,WindDirectionDegrees,WindSpeedMPH,WindSpeedGustMPH,Humidity,HourlyPrecipIn,Conditions,Clouds,dailyrainin,SoftwareType,DateUTC
2013-10-07 00:01:00,46.9,19.5,30.09,ENE,77,5.8,6.7,33,0.00,,---,0.00,VWS V14.01,2013-10-07 07:01:00,
2013-10-07 00:06:00,46.6,19.2,30.09,East,84,4.0,6.3,33,0.00,,---,0.00,VWS V14.01,2013-10-07 07:06:00,
2013-10-07 00:12:00,46.4,19.0,30.09,ENE,75,6.3,7.6,33,0.00,,---,0.00,VWS V14.01,2013-10-07 07:12:00,
2013-10-07 00:18:00,46.6,19.2,30.09,ESE,106,0.0,0.0,33,0.00,,---,0.00,VWS V14.01,2013-10-07 07:18:00,
2013-10-07 00:23:00,46.6,19.2,30.09,ESE,108,0.0,0.0,33,0.00,,---,0.00,VWS V14.01,2013-10-07 07:23:00,
2013-10-07 00:29:00,46.8,19.4,30.09,East,98,3.1,4.0,33,0.00,,---,0.00,VWS V14.01,2013-10-07 07:29:00,
2013-10-07 00:34:00,46.8,19.4,30.09,ENE,69,6.3,6.7,33,0.00,,---,0.00,VWS V14.01,2013-10-07 07:34:00,
2013-10-07 00:40:00,46.6,19.2,30.09,East,100,0.0,0.0,33,0.00,,---,0.00,VWS V14.01,2013-10-07 07:40:00,
2013-10-07 00:45:00,46.2,20.1,30.09,ESE,112,2.2,3.1,35,0.00,,---,0.00,VWS V14.01,2013-10-07 07:45:00,
2013-10-07 00:51:00,46.0,19.9,30.09,East,92,0.0,2.2,35,0.00,,---,0.00,VWS V14.01,2013-10-07 07:51:00,
2013-10-07 00:56:00,45.5,19.5,30.09,East,95,0.0,0.0,35,0.00,,---,0.00,VWS V14.01,2013-10-07 07:56:00,
2013-10-07 01:02:00,45.5,19.5,30.09,East,94,0.0,0.0,35,0.00,,---,0.00,VWS V14.01,2013-10-07 08:02:00,
2013-10-07 01:08:00,45.5,19.5,30.09,East,90,3.1,4.0,35,0.00,,---,0.00,VWS V14.01,2013-10-07 08:08:00,
2013-10-07 01:13:00,45.5,19.5,30.09,ENE,57,2.2,4.0,35,0.00,,---,0.00,VWS V14.01,2013-10-07 08:13:00,
2013-10-07 01:19:00,46.0,19.9,30.09,ENE,64,3.1,3.6,35,0.00,,---,0.00,VWS V14.01,2013-10-07 08:19:00,
2013-10-07 01:24:00,47.1,19.7,30.09,ENE,58,5.4,5.4,33,0.00,,---,0.00,VWS V14.01,2013-10-07 08:24:00,
2013-10-07 01:29:00,47.7,20.2,30.09,ENE,67,5.4,5.8,33,0.00,,---,0.00,VWS V14.01,2013-10-07 08:29:00,
2013-10-07 01:34:00,48.0,20.5,30.09,ESE,109,5.8,6.3,33,0.00,,---,0.00,VWS V14.01,2013-10-07 08:34:00,
2013-10-07 01:40:00,47.8,20.3,30.09,ENE,76,5.4,5.4,33,0.00,,---,0.00,VWS V14.01,2013-10-07 08:40:00,
2013-10-07 01:45:00,47.8,20.3,30.09,East,92,6.3,8.1,33,0.00,,---,0.00,VWS V14.01,2013-10-07 08:45:00,
2013-10-07 01:51:00,48.0,20.5,30.09,East,94,3.6,4.0,33,0.00,,---,0.00,VWS V14.01,2013-10-07 08:51:00,
2013-10-07 01:56:00,48.2,20.6,30.09,ENE,70,3.6,8.1,33,0.00,,---,0.00,VWS V14.01,2013-10-07 08:56:00,
2013-10-07 02:02:00,47.8,20.3,30.09,ENE,62,2.7,4.0,33,0.00,,---,0.00,VWS V14.01,2013-10-07 09:02:00,
2013-10-07 02:07:00,48.0,20.5,30.06,NE,51,5.4,6.3,33,0.00,,---,0.00,VWS V14.01,2013-10-07 09:07:00,
2013-10-07 02:13:00,48.6,21.0,30.06,ENE,60,7.6,8.3,33,0.00,,---,0.00,VWS V14.01,2013-10-07 09:13:00,
2013-10-07 02:19:00,48.6,21.0,30.06,NE,56,7.6,7.6,33,0.00,,---,0.00,VWS V14.01,2013-10-07 09:19:00,
2013-10-07 02:24:00,48.9,21.3,30.06,ENE,61,5.4,5.8,33,0.00,,---,0.00,VWS V14.01,2013-10-07 09:24:00,
2013-10-07 02:29:00,48.9,21.3,30.06,ENE,61,0.0,3.6,33,0.00,,---,0.00,VWS V14.01,2013-10-07 09:29:00,
2013-10-07 02:34:00,48.6,21.0,30.06,ENE,63,2.2,4.0,33,0.00,,---,0.00,VWS V14.01,2013-10-07 09:34:00,
2013-10-07 02:40:00,47.7,20.2,30.06,East,93,5.4,5.4,33,0.00,,---,0.00,VWS V14.01,2013-10-07 09:40:00,
2013-10-07 02:46:00,47.3,19.9,30.06,SW,214,2.7,2.7,33,0.00,,---,0.00,VWS V14.01,2013-10-07 09:46:00,
2013-10-07 02:51:00,46.8,19.4,30.06,West,266,0.0,0.0,33,0.00,,---,0.00,VWS V14.01,2013-10-07 09:51:00,
2013-10-07 02:57:00,46.2,20.1,30.06,ESE,103,2.7,4.0,35,0.00,,---,0.00,VWS V14.01,2013-10-07 09:57:00,
2013-10-07 03:02:00,45.9,19.8,30.06,ENE,67,4.9,6.3,35,0.00,,---,0.00,VWS V14.01,2013-10-07 10:02:00,
2013-10-07 03:08:00,45.3,19.3,30.06,South,175,0.0,0.0,35,0.00,,---,0.00,VWS V14.01,2013-10-07 10:08:00,
2013-10-07 03:14:00,44.8,18.8,30.06,ENE,63,4.0,4.0,35,0.00,,---,0.00,VWS V14.01,2013-10-07 10:14:00,
2013-10-07 03:19:00,44.1,18.2,30.06,ENE,72,4.0,4.0,35,0.00,,---,0.00,VWS V14.01,2013-10-07 10:19:00,
2013-10-07 03:25:00,44.1,18.2,30.06,NE,52,4.5,5.8,35,0.00,,---,0.00,VWS V14.01,2013-10-07 10:25:00,
2013-10-07 03:31:00,44.2,18.3,30.06,East,91,0.0,2.7,35,0.00,,---,0.00,VWS V14.01,2013-10-07 10:31:00,
2013-10-07 03:36:00,44.1,18.2,30.06,ESE,106,3.1,3.1,35,0.00,,---,0.00,VWS V14.01,2013-10-07 10:36:00,
2013-10-07 03:42:00,44.1,18.2,30.06,ENE,61,2.7,5.4,35,0.00,,---,0.00,VWS V14.01,2013-10-07 10:42:00,
2013-10-07 03:47:00,43.7,17.9,30.06,ENE,58,0.0,0.0,35,0.00,,---,0.00,VWS V14.01,2013-10-07 10:47:00,
2013-10-07 03:52:00,43.5,17.7,30.06,WSW,241,4.5,4.5,35,0.00,,---,0.00,VWS V14.01,2013-10-07 10:52:00,
2013-10-07 03:58:00,43.3,17.5,30.06,South,172,2.2,4.9,35,0.00,,---,0.00,VWS V14.01,2013-10-07 10:58:00,
2013-10-07 04:04:00,43.2,17.4,30.06,SSW,197,0.0,0.0,35,0.00,,---,0.00,VWS V14.01,2013-10-07 11:04:00,
2013-10-07 04:10:00,43.0,17.2,30.06,East,82,2.7,4.9,35,0.00,,---,0.00,VWS V14.01,2013-10-07 11:10:00,
2013-10-07 04:15:00,43.5,17.7,30.06,East,85,0.0,0.0,35,0.00,,---,0.00,VWS V14.01,2013-10-07 11:15:00,
2013-10-07 04:21:00,43.9,18.0,30.06,SSW,196,0.0,0.0,35,0.00,,---,0.00,VWS V14.01,2013-10-07 11:21:00,
2013-10-07 04:26:00,43.9,18.0,30.06,South,172,0.0,0.0,35,0.00,,---,0.00,VWS V14.01,2013-10-07 11:26:00,
2013-10-07 04:31:00,43.7,17.9,30.06,ESE,115,2.2,2.2,35,0.00,,---,0.00,VWS V14.01,2013-10-07 11:31:00,
2013-10-07 04:37:00,43.5,17.7,30.06,SE,132,6.3,7.6,35,0.00,,---,0.00,VWS V14.01,2013-10-07 11:37:00,
2013-10-07 04:43:00,43.2,17.4,30.06,ESE,112,5.8,6.3,35,0.00,,---,0.00,VWS V14.01,2013-10-07 11:43:00,
2013-10-07 04:48:00,43.0,17.2,30.06,ESE,117,6.3,6.3,35,0.00,,---,0.00,VWS V14.01,2013-10-07 11:48:00,
2013-10-07 04:54:00,43.0,17.2,30.06,SE,125,4.0,4.0,35,0.00,,---,0.00,VWS V14.01,2013-10-07 11:54:00,
2013-10-07 04:59:00,42.8,17.1,30.06,SE,126,0.0,0.0,35,0.00,,---,0.00,VWS V14.01,2013-10-07 11:59:00,
2013-10-07 05:06:00,42.8,17.1,30.06,SE,135,0.0,0.0,35,0.00,,---,0.00,VWS V14.01,2013-10-07 12:06:00,
2013-10-07 05:11:00,43.0,17.2,30.06,ENE,70,0.0,0.0,35,0.00,,---,0.00,VWS V14.01,2013-10-07 12:11:00,
2013-10-07 05:16:00,43.0,17.2,30.06,ENE,75,0.0,0.0,35,0.00,,---,0.00,VWS V14.01,2013-10-07 12:16:00,
2013-10-07 05:22:00,42.8,17.1,30.06,ESE,107,3.1,4.0,35,0.00,,---,0.00,VWS V14.01,2013-10-07 12:22:00,
2013-10-07 05:27:00,42.8,17.1,30.06,ESE,102,3.1,4.9,35,0.00,,---,0.00,VWS V14.01,2013-10-07 12:27:00,
2013-10-07 05:33:00,42.6,18.0,30.06,SE,146,4.5,4.9,37,0.00,,---,0.00,VWS V14.01,2013-10-07 12:33:00,
2013-10-07 05:39:00,42.4,17.9,30.06,East,91,5.4,6.3,37,0.00,,---,0.00,VWS V14.01,2013-10-07 12:39:00,
2013-10-07 05:45:00,43.3,17.5,30.06,ENE,77,0.0,2.7,35,0.00,,---,0.00,VWS V14.01,2013-10-07 12:45:00,
2013-10-07 05:50:00,43.5,17.7,30.06,South,180,0.0,0.0,35,0.00,,---,0.00,VWS V14.01,2013-10-07 12:50:00,
2013-10-07 05:56:00,43.5,17.7,30.06,East,88,2.7,4.9,35,0.00,,---,0.00,VWS V14.01,2013-10-07 12:56:00,
2013-10-07 06:01:00,44.1,18.2,30.06,ENE,57,4.0,4.0,35,0.00,,---,0.00,VWS V14.01,2013-10-07 13:01:00,
2013-10-07 06:07:00,44.2,18.3,30.06,SSE,162,5.4,5.8,35,0.00,,---,0.00,VWS V14.01,2013-10-07 13:07:00,
2013-10-07 06:12:00,44.2,18.3,30.06,East,92,5.4,6.3,35,0.00,,---,0.00,VWS V14.01,2013-10-07 13:12:00,
2013-10-07 06:18:00,44.6,18.7,30.06,East,80,4.0,6.3,35,0.00,,---,0.00,VWS V14.01,2013-10-07 13:18:00,
2013-10-07 06:23:00,44.8,18.8,30.06,ENE,76,5.4,5.4,35,0.00,,---,0.00,VWS V14.01,2013-10-07 13:23:00,
2013-10-07 06:29:00,44.8,18.8,30.06,ESE,107,3.1,4.0,35,0.00,,---,0.00,VWS V14.01,2013-10-07 13:29:00,
2013-10-07 06:35:00,45.1,19.1,30.06,ENE,63,5.4,8.3,35,0.00,,---,0.00,VWS V14.01,2013-10-07 13:35:00,
2013-10-07 06:40:00,45.3,19.3,30.06,East,100,8.3,8.3,35,0.00,,---,0.00,VWS V14.01,2013-10-07 13:40:00,
2013-10-07 06:45:00,45.5,19.5,30.06,East,86,8.1,10.1,35,0.00,,---,0.00,VWS V14.01,2013-10-07 13:45:00,
2013-10-07 06:50:00,45.9,19.8,30.06,East,100,4.9,5.8,35,0.00,,---,0.00,VWS V14.01,2013-10-07 13:50:00,
2013-10-07 06:56:00,45.9,19.8,30.06,ENE,76,5.8,5.8,35,0.00,,---,0.00,VWS V14.01,2013-10-07 13:56:00,
2013-10-07 07:01:00,45.9,19.8,30.06,East,97,5.4,6.3,35,0.00,,---,0.00,VWS V14.01,2013-10-07 14:01:00,
2013-10-07 07:07:00,45.7,19.6,30.06,East,84,4.0,5.4,35,0.00,,---,0.00,VWS V14.01,2013-10-07 14:07:00,
2013-10-07 07:12:00,45.5,19.5,30.06,ENE,75,8.1,8.1,35,0.00,,---,0.00,VWS V14.01,2013-10-07 14:12:00,
2013-10-07 07:18:00,45.7,19.6,30.06,ENE,67,3.1,5.8,35,0.00,,---,0.00,VWS V14.01,2013-10-07 14:18:00,
2013-10-07 07:24:00,45.5,19.5,30.06,ESE,105,4.9,6.3,35,0.00,,---,0.00,VWS V14.01,2013-10-07 14:24:00,
2013-10-07 07:29:00,45.5,19.5,30.06,ENE,65,2.7,4.0,35,0.00,,---,0.00,VWS V14.01,2013-10-07 14:29:00,
2013-10-07 07:35:00,45.7,19.6,30.06,ENE,62,0.0,0.0,35,0.00,,---,0.00,VWS V14.01,2013-10-07 14:35:00,
2013-10-07 07:41:00,45.9,19.8,30.06,ENE,65,0.0,0.0,35,0.00,,---,0.00,VWS V14.01,2013-10-07 14:41:00,
2013-10-07 07:47:00,45.3,19.3,30.06,NNW,335,0.0,0.0,35,0.00,,---,0.00,VWS V14.01,2013-10-07 14:47:00,
2013-10-07 07:52:00,45.1,19.1,30.09,NNE,12,0.0,0.0,35,0.00,,---,0.00,VWS V14.01,2013-10-07 14:52:00,
2013-10-07 07:58:00,45.1,19.1,30.09,ENE,64,0.0,0.0,35,0.00,,---,0.00,VWS V14.01,2013-10-07 14:58:00,
2013-10-07 08:03:00,45.3,19.3,30.09,SSW,207,0.0,0.0,35,0.00,,---,0.00,VWS V14.01,2013-10-07 15:03:00,
2013-10-07 08:09:00,45.7,19.6,30.09,ESE,115,0.0,0.0,35,0.00,,---,0.00,VWS V14.01,2013-10-07 15:09:00,
2013-10-07 08:14:00,45.7,19.6,30.09,NE,45,4.9,5.8,35,0.00,,---,0.00,VWS V14.01,2013-10-07 15:14:00,
2013-10-07 08:20:00,45.9,19.8,30.09,NNE,26,0.0,0.0,35,0.00,,---,0.00,VWS V14.01,2013-10-07 15:20:00,
2013-10-07 08:25:00,46.9,19.5,30.09,NE,50,3.1,3.6,33,0.00,,---,0.00,VWS V14.01,2013-10-07 15:25:00,
2013-10-07 08:31:00,48.7,21.1,30.09,ENE,76,3.1,3.1,33,0.00,,---,0.00,VWS V14.01,2013-10-07 15:31:00,
2013-10-07 08:37:00,49.8,22.1,30.09,ENE,78,0.0,0.0,33,0.00,,---,0.00,VWS V14.01,2013-10-07 15:37:00,
2013-10-07 08:43:00,51.4,23.5,30.09,ENE,78,0.0,0.0,33,0.00,,---,0.00,VWS V14.01,2013-10-07 15:43:00,
2013-10-07 08:48:00,53.2,23.8,30.09,East,89,0.0,0.0,32,0.00,,---,0.00,VWS V14.01,2013-10-07 15:48:00,
2013-10-07 08:53:00,54.9,25.2,30.09,East,89,0.0,0.0,32,0.00,,---,0.00,VWS V14.01,2013-10-07 15:53:00,
2013-10-07 08:58:00,56.7,25.4,30.09,East,89,0.0,0.0,30,0.00,,---,0.00,VWS V14.01,2013-10-07 15:58:00,
2013-10-07 09:04:00,58.1,26.6,30.09,East,89,0.0,0.0,30,0.00,,---,0.00,VWS V14.01,2013-10-07 16:04:00,
2013-10-07 09:10:00,60.1,28.4,30.09,East,89,0.0,0.0,30,0.00,,---,0.00,VWS V14.01,2013-10-07 16:10:00,
2013-10-07 09:15:00,62.1,28.6,30.09,East,89,0.0,0.0,28,0.00,,---,0.00,VWS V14.01,2013-10-07 16:15:00,
2013-10-07 09:21:00,63.7,30.0,30.09,East,89,0.0,0.0,28,0.00,,---,0.00,VWS V14.01,2013-10-07 16:21:00,
2013-10-07 09:26:00,65.7,30.1,30.09,East,89,0.0,0.0,26,0.00,,---,0.00,VWS V14.01,2013-10-07 16:26:00,
2013-10-07 09:32:00,67.6,31.8,30.09,East,89,0.0,0.0,26,0.00,,---,0.00,VWS V14.01,2013-10-07 16:32:00,
2013-10-07 09:38:00,69.4,33.3,30.09,East,90,0.0,0.0,26,0.00,,---,0.00,VWS V14.01,2013-10-07 16:38:00,
2013-10-07 09:43:00,70.9,32.8,30.09,South,176,0.0,0.0,24,0.00,,---,0.00,VWS V14.01,2013-10-07 16:43:00,
2013-10-07 09:48:00,71.4,33.3,30.09,SW,225,2.2,2.2,24,0.00,,---,0.00,VWS V14.01,2013-10-07 16:48:00,
2013-10-07 09:53:00,71.6,33.4,30.09,SW,236,3.1,5.4,24,0.00,,---,0.00,VWS V14.01,2013-10-07 16:53:00,
2013-10-07 09:59:00,72.3,34.0,30.09,WSW,250,6.7,7.2,24,0.00,,---,0.00,VWS V14.01,2013-10-07 16:59:00,
2013-10-07 10:04:00,72.9,34.5,30.09,SSW,208,6.3,7.6,24,0.00,,---,0.00,VWS V14.01,2013-10-07 17:04:00,
2013-10-07 10:10:00,73.2,34.8,30.09,WSW,248,6.3,8.3,24,0.00,,---,0.00,VWS V14.01,2013-10-07 17:10:00,
2013-10-07 10:15:00,73.8,33.4,30.09,SW,233,7.6,8.1,23,0.00,,---,0.00,VWS V14.01,2013-10-07 17:15:00,
2013-10-07 10:21:00,74.7,34.2,30.09,WSW,244,6.3,7.6,23,0.00,,---,0.00,VWS V14.01,2013-10-07 17:21:00,
2013-10-07 10:26:00,75.4,34.8,30.09,WSW,258,6.3,6.3,23,0.00,,---,0.00,VWS V14.01,2013-10-07 17:26:00,
2013-10-07 10:32:00,75.0,34.5,30.09,WNW,294,8.3,8.3,23,0.00,,---,0.00,VWS V14.01,2013-10-07 17:32:00,
2013-10-07 10:38:00,74.3,33.9,30.09,WNW,302,4.9,5.4,23,0.00,,---,0.00,VWS V14.01,2013-10-07 17:38:00,
2013-10-07 10:44:00,74.1,33.7,30.09,WNW,283,5.8,6.3,23,0.00,,---,0.00,VWS V14.01,2013-10-07 17:44:00,
2013-10-07 10:50:00,75.0,34.5,30.06,West,278,3.6,3.6,23,0.00,,---,0.00,VWS V14.01,2013-10-07 17:50:00,
2013-10-07 10:55:00,75.6,34.9,30.06,West,281,4.0,4.5,23,0.00,,---,0.00,VWS V14.01,2013-10-07 17:55:00,
2013-10-07 11:01:00,76.8,36.0,30.06,WNW,296,5.8,7.6,23,0.00,,---,0.00,VWS V14.01,2013-10-07 18:01:00,
2013-10-07 11:06:00,76.5,35.7,30.06,WSW,256,8.7,8.7,23,0.00,,---,0.00,VWS V14.01,2013-10-07 18:06:00,
2013-10-07 11:12:00,76.3,35.5,30.06,NW,307,7.6,8.7,23,0.00,,---,0.00,VWS V14.01,2013-10-07 18:12:00,
2013-10-07 11:17:00,75.7,35.1,30.06,WSW,248,5.8,6.7,23,0.00,,---,0.00,VWS V14.01,2013-10-07 18:17:00,
2013-10-07 11:23:00,76.1,35.4,30.06,WNW,293,5.8,8.1,23,0.00,,---,0.00,VWS V14.01,2013-10-07 18:23:00,
2013-10-07 11:28:00,76.1,35.4,30.06,West,262,3.6,6.3,23,0.00,,---,0.00,VWS V14.01,2013-10-07 18:28:00,
2013-10-07 11:33:00,75.7,35.1,30.06,West,279,4.0,6.7,23,0.00,,---,0.00,VWS V14.01,2013-10-07 18:33:00,
2013-10-07 11:39:00,76.1,35.4,30.06,WSW,257,5.8,5.8,23,0.00,,---,0.00,VWS V14.01,2013-10-07 18:39:00,
2013-10-07 11:45:00,76.5,35.7,30.06,WNW,290,3.6,5.8,23,0.00,,---,0.00,VWS V14.01,2013-10-07 18:45:00,
2013-10-07 11:50:00,76.6,35.8,30.06,NW,312,4.0,5.4,23,0.00,,---,0.00,VWS V14.01,2013-10-07 18:50:00,
2013-10-07 11:55:00,77.2,36.3,30.06,WSW,255,11.0,11.0,23,0.00,,---,0.00,VWS V14.01,2013-10-07 18:55:00,
2013-10-07 12:01:00,77.5,36.6,30.06,WNW,283,7.6,8.7,23,0.00,,---,0.00,VWS V14.01,2013-10-07 19:01:00,
2013-10-07 12:07:00,77.0,36.1,30.06,NW,310,2.7,3.6,23,0.00,,---,0.00,VWS V14.01,2013-10-07 19:07:00,
2013-10-07 12:13:00,77.4,36.4,30.06,West,264,10.1,10.1,23,0.00,,---,0.00,VWS V14.01,2013-10-07 19:13:00,
2013-10-07 12:19:00,77.0,36.1,30.06,WNW,302,5.4,8.3,23,0.00,,---,0.00,VWS V14.01,2013-10-07 19:19:00,
2013-10-07 12:24:00,77.4,36.4,30.03,West,277,7.6,7.6,23,0.00,,---,0.00,VWS V14.01,2013-10-07 19:24:00,
2013-10-07 12:30:00,77.0,36.1,30.03,West,266,3.1,8.3,23,0.00,,---,0.00,VWS V14.01,2013-10-07 19:30:00,
2013-10-07 12:35:00,77.7,36.7,30.03,West,281,5.8,8.7,23,0.00,,---,0.00,VWS V14.01,2013-10-07 19:35:00,
2013-10-07 12:41:00,78.8,35.6,30.03,North,0,6.3,8.3,21,0.00,,---,0.00,VWS V14.01,2013-10-07 19:41:00,
2013-10-07 12:46:00,79.0,35.8,30.03,WSW,249,10.1,10.5,21,0.00,,---,0.00,VWS V14.01,2013-10-07 19:46:00,
2013-10-07 12:51:00,79.0,35.8,30.03,WSW,249,7.6,10.1,21,0.00,,---,0.00,VWS V14.01,2013-10-07 19:51:00,
2013-10-07 12:57:00,79.5,36.2,30.03,WSW,247,10.1,10.1,21,0.00,,---,0.00,VWS V14.01,2013-10-07 19:57:00,
2013-10-07 13:03:00,80.1,36.7,30.03,West,266,5.4,6.3,21,0.00,,---,0.00,VWS V14.01,2013-10-07 20:03:00,
2013-10-07 13:09:00,79.5,36.2,30.03,SW,220,14.5,14.5,21,0.00,,---,0.00,VWS V14.01,2013-10-07 20:09:00,
2013-10-07 13:15:00,80.4,37.0,30.03,SW,228,4.0,8.1,21,0.00,,---,0.00,VWS V14.01,2013-10-07 20:15:00,
2013-10-07 13:20:00,80.4,37.0,30.03,West,277,8.7,10.5,21,0.00,,---,0.00,VWS V14.01,2013-10-07 20:20:00,
2013-10-07 13:26:00,79.2,35.9,30.03,NNW,327,3.1,5.4,21,0.00,,---,0.00,VWS V14.01,2013-10-07 20:26:00,
2013-10-07 13:31:00,77.9,36.9,30.03,West,262,13.2,13.2,23,0.00,,---,0.00,VWS V14.01,2013-10-07 20:31:00,
2013-10-07 13:37:00,78.4,37.3,30.03,West,264,5.8,8.7,23,0.00,,---,0.00,VWS V14.01,2013-10-07 20:37:00,
2013-10-07 13:42:00,78.8,35.6,30.03,West,266,7.6,8.7,21,0.00,,---,0.00,VWS V14.01,2013-10-07 20:42:00,
2013-10-07 13:48:00,79.5,36.2,30.03,NW,310,8.7,8.7,21,0.00,,---,0.00,VWS V14.01,2013-10-07 20:48:00,
2013-10-07 13:53:00,79.0,35.8,30.00,WSW,254,8.1,10.1,21,0.00,,---,0.00,VWS V14.01,2013-10-07 20:53:00,
2013-10-07 13:58:00,78.8,35.6,30.00,West,281,7.2,12.8,21,0.00,,---,0.00,VWS V14.01,2013-10-07 20:58:00,
2013-10-07 14:04:00,78.1,37.0,30.00,WNW,289,10.5,13.6,23,0.00,,---,0.00,VWS V14.01,2013-10-07 21:04:00,
2013-10-07 14:09:00,78.1,37.0,30.00,NW,313,11.0,12.8,23,0.00,,---,0.00,VWS V14.01,2013-10-07 21:09:00,
2013-10-07 14:14:00,78.6,37.5,30.00,SW,235,13.2,17.9,23,0.00,,---,0.00,VWS V14.01,2013-10-07 21:14:00,
2013-10-07 14:20:00,79.2,35.9,30.00,West,260,12.8,13.2,21,0.00,,---,0.00,VWS V14.01,2013-10-07 21:20:00,
2013-10-07 14:26:00,78.3,37.2,30.00,WNW,284,14.1,14.1,23,0.00,,---,0.00,VWS V14.01,2013-10-07 21:26:00,
2013-10-07 14:32:00,78.1,37.0,30.00,WSW,256,10.1,13.2,23,0.00,,---,0.00,VWS V14.01,2013-10-07 21:32:00,
2013-10-07 14:37:00,78.3,37.2,30.00,SW,221,11.0,15.4,23,0.00,,---,0.00,VWS V14.01,2013-10-07 21:37:00,
2013-10-07 14:43:00,77.7,36.7,30.00,WSW,258,11.0,12.8,23,0.00,,---,0.00,VWS V14.01,2013-10-07 21:43:00,
2013-10-07 14:48:00,77.4,36.4,30.00,West,280,11.0,11.0,23,0.00,,---,0.00,VWS V14.01,2013-10-07 21:48:00,
2013-10-07 14:54:00,77.7,36.7,30.00,WSW,258,11.0,13.2,23,0.00,,---,0.00,VWS V14.01,2013-10-07 21:54:00,
2013-10-07 14:59:00,78.3,37.2,30.00,WNW,299,10.5,12.8,23,0.00,,---,0.00,VWS V14.01,2013-10-07 21:59:00,
2013-10-07 15:05:00,77.7,36.7,30.00,WNW,301,11.0,12.3,23,0.00,,---,0.00,VWS V14.01,2013-10-07 22:05:00,
2013-10-07 15:11:00,78.1,37.0,30.00,WSW,243,15.9,15.9,23,0.00,,---,0.00,VWS V14.01,2013-10-07 22:11:00,
2013-10-07 15:16:00,77.7,36.7,30.00,West,267,10.1,12.8,23,0.00,,---,0.00,VWS V14.01,2013-10-07 22:16:00,
2013-10-07 15:21:00,77.5,36.6,30.00,WNW,285,8.7,11.0,23,0.00,,---,0.00,VWS V14.01,2013-10-07 22:21:00,
2013-10-07 15:27:00,77.2,36.3,30.00,West,279,4.9,8.3,23,0.00,,---,0.00,VWS V14.01,2013-10-07 22:27:00,
2013-10-07 15:32:00,77.5,36.6,30.00,SW,234,10.5,12.8,23,0.00,,---,0.00,VWS V14.01,2013-10-07 22:32:00,
2013-10-07 15:38:00,77.5,36.6,30.00,West,269,8.7,11.0,23,0.00,,---,0.00,VWS V14.01,2013-10-07 22:38:00,
2013-10-07 15:43:00,77.2,36.3,30.00,NW,305,6.3,10.1,23,0.00,,---,0.00,VWS V14.01,2013-10-07 22:43:00,
2013-10-07 15:48:00,77.2,36.3,30.00,NW,305,15.0,15.0,23,0.00,,---,0.00,VWS V14.01,2013-10-07 22:48:00,
2013-10-07 15:53:00,77.2,36.3,30.00,WSW,250,9.2,15.0,23,0.00,,---,0.00,VWS V14.01,2013-10-07 22:53:00,
2013-10-07 15:59:00,76.6,35.8,30.00,West,268,12.3,13.2,23,0.00,,---,0.00,VWS V14.01,2013-10-07 22:59:00,
2013-10-07 16:05:00,76.1,35.4,30.00,West,262,10.5,11.0,23,0.00,,---,0.00,VWS V14.01,2013-10-07 23:05:00,
2013-10-07 16:10:00,76.1,35.4,30.00,WSW,253,11.0,11.0,23,0.00,,---,0.00,VWS V14.01,2013-10-07 23:10:00,
2013-10-07 16:16:00,75.7,35.1,30.00,WNW,289,7.6,11.9,23,0.00,,---,0.00,VWS V14.01,2013-10-07 23:16:00,
2013-10-07 16:22:00,75.0,34.5,30.00,WNW,288,10.1,11.0,23,0.00,,---,0.00,VWS V14.01,2013-10-07 23:22:00,
2013-10-07 16:27:00,75.4,34.8,30.00,West,261,11.0,11.0,23,0.00,,---,0.00,VWS V14.01,2013-10-07 23:27:00,
2013-10-07 16:33:00,75.2,34.6,30.00,WNW,287,10.1,11.9,23,0.00,,---,0.00,VWS V14.01,2013-10-07 23:33:00,
2013-10-07 16:38:00,75.0,34.5,30.00,WSW,257,13.2,15.4,23,0.00,,---,0.00,VWS V14.01,2013-10-07 23:38:00,
2013-10-07 16:44:00,74.8,34.3,30.00,West,270,11.0,11.0,23,0.00,,---,0.00,VWS V14.01,2013-10-07 23:44:00,
2013-10-07 16:49:00,74.3,33.9,30.00,West,268,10.1,10.5,23,0.00,,---,0.00,VWS V14.01,2013-10-07 23:49:00,
2013-10-07 16:55:00,73.8,33.4,30.00,West,271,8.7,11.9,23,0.00,,---,0.00,VWS V14.01,2013-10-07 23:55:00,
2013-10-07 17:01:00,73.6,33.3,30.00,West,261,8.1,11.9,23,0.00,,---,0.00,VWS V14.01,2013-10-08 00:01:00,
2013-10-07 17:06:00,73.4,33.1,30.00,West,270,11.0,15.4,23,0.00,,---,0.00,VWS V14.01,2013-10-08 00:06:00,
2013-10-07 17:12:00,73.0,34.7,30.00,West,272,11.0,12.8,24,0.00,,---,0.00,VWS V14.01,2013-10-08 00:12:00,
2013-10-07 17:17:00,72.7,34.4,30.00,West,268,13.2,13.2,24,0.00,,---,0.00,VWS V14.01,2013-10-08 00:17:00,
2013-10-07 17:23:00,72.3,34.0,30.00,West,269,13.2,13.2,24,0.00,,---,0.00,VWS V14.01,2013-10-08 00:23:00,
2013-10-07 17:28:00,71.8,33.6,30.00,West,259,10.1,13.2,24,0.00,,---,0.00,VWS V14.01,2013-10-08 00:28:00,
2013-10-07 17:34:00,71.4,33.3,30.00,West,264,12.8,15.0,24,0.00,,---,0.00,VWS V14.01,2013-10-08 00:34:00,
2013-10-07 17:39:00,70.9,32.8,30.00,West,266,10.1,15.0,24,0.00,,---,0.00,VWS V14.01,2013-10-08 00:39:00,
2013-10-07 17:45:00,70.3,32.4,30.00,West,261,9.6,11.9,24,0.00,,---,0.00,VWS V14.01,2013-10-08 00:45:00,
2013-10-07 17:51:00,70.0,32.1,30.00,WSW,258,10.5,15.4,24,0.00,,---,0.00,VWS V14.01,2013-10-08 00:51:00,
2013-10-07 17:57:00,69.6,33.5,30.00,West,267,12.8,12.8,26,0.00,,---,0.00,VWS V14.01,2013-10-08 00:57:00,
2013-10-07 18:02:00,69.3,33.2,30.00,West,262,11.0,12.3,26,0.00,,---,0.00,VWS V14.01,2013-10-08 01:02:00,
2013-10-07 18:08:00,68.5,32.6,30.00,WSW,254,6.3,7.6,26,0.00,,---,0.00,VWS V14.01,2013-10-08 01:08:00,
2013-10-07 18:13:00,67.8,32.0,30.00,WSW,254,7.6,8.3,26,0.00,,---,0.00,VWS V14.01,2013-10-08 01:13:00,
2013-10-07 18:19:00,67.1,31.3,30.00,WSW,255,6.3,8.3,26,0.00,,---,0.00,VWS V14.01,2013-10-08 01:19:00,
2013-10-07 18:24:00,66.4,30.7,30.00,West,265,3.1,4.0,26,0.00,,---,0.00,VWS V14.01,2013-10-08 01:24:00,
2013-10-07 18:30:00,65.5,30.0,30.00,NW,325,5.4,5.4,26,0.00,,---,0.00,VWS V14.01,2013-10-08 01:30:00,
2013-10-07 18:35:00,64.0,30.3,30.00,NW,318,5.8,6.7,28,0.00,,---,0.00,VWS V14.01,2013-10-08 01:35:00,
2013-10-07 18:41:00,63.5,29.8,30.00,WNW,286,3.1,3.6,28,0.00,,---,0.00,VWS V14.01,2013-10-08 01:41:00,
2013-10-07 18:46:00,64.0,30.3,30.00,WNW,286,0.0,0.0,28,0.00,,---,0.00,VWS V14.01,2013-10-08 01:46:00,
2013-10-07 18:52:00,64.0,30.3,30.00,WNW,286,0.0,0.0,28,0.00,,---,0.00,VWS V14.01,2013-10-08 01:52:00,
2013-10-07 18:57:00,63.9,30.1,30.00,WNW,286,0.0,0.0,28,0.00,,---,0.00,VWS V14.01,2013-10-08 01:57:00,
2013-10-07 19:02:00,63.3,29.7,30.00,WNW,301,0.0,2.7,28,0.00,,---,0.00,VWS V14.01,2013-10-08 02:02:00,
2013-10-07 19:08:00,62.8,29.2,30.00,WNW,293,0.0,0.0,28,0.00,,---,0.00,VWS V14.01,2013-10-08 02:08:00,
2013-10-07 19:13:00,61.7,28.3,30.00,West,276,3.6,4.0,28,0.00,,---,0.00,VWS V14.01,2013-10-08 02:13:00,
2013-10-07 19:20:00,61.3,28.0,30.00,West,266,4.0,4.9,28,0.00,,---,0.00,VWS V14.01,2013-10-08 02:20:00,
2013-10-07 19:25:00,61.0,27.7,30.00,West,270,2.7,3.6,28,0.00,,---,0.00,VWS V14.01,2013-10-08 02:25:00,
2013-10-07 19:30:00,60.8,27.5,30.00,WNW,286,0.0,0.0,28,0.00,,---,0.00,VWS V14.01,2013-10-08 02:30:00,
2013-10-07 19:36:00,59.9,28.2,30.00,NNW,335,3.6,3.6,30,0.00,,---,0.00,VWS V14.01,2013-10-08 02:36:00,
2013-10-07 19:41:00,59.2,27.6,30.00,NNW,328,4.0,4.0,30,0.00,,---,0.00,VWS V14.01,2013-10-08 02:41:00,
2013-10-07 19:47:00,58.5,27.0,30.00,NW,307,0.0,3.6,30,0.00,,---,0.00,VWS V14.01,2013-10-08 02:47:00,
2013-10-07 19:52:00,57.7,26.3,30.00,NW,310,0.0,0.0,30,0.00,,---,0.00,VWS V14.01,2013-10-08 02:52:00,
2013-10-07 19:58:00,56.8,25.5,30.00,SE,139,4.0,4.0,30,0.00,,---,0.00,VWS V14.01,2013-10-08 02:58:00,
2013-10-07 20:04:00,55.6,24.5,30.00,ESE,108,3.6,3.6,30,0.00,,---,0.00,VWS V14.01,2013-10-08 03:04:00,
2013-10-07 20:10:00,54.7,25.0,30.00,East,99,0.0,0.0,32,0.00,,---,0.00,VWS V14.01,2013-10-08 03:10:00,
2013-10-07 20:16:00,54.1,24.6,30.00,SE,135,4.0,4.0,32,0.00,,---,0.00,VWS V14.01,2013-10-08 03:16:00,
2013-10-07 20:22:00,53.6,24.1,30.00,SSE,166,4.0,4.0,32,0.00,,---,0.00,VWS V14.01,2013-10-08 03:22:00,
2013-10-07 20:27:00,53.1,23.6,30.00,SE,138,2.7,3.1,32,0.00,,---,0.00,VWS V14.01,2013-10-08 03:27:00,
2013-10-07 20:33:00,52.5,23.2,30.00,SE,124,4.0,5.4,32,0.00,,---,0.00,VWS V14.01,2013-10-08 03:33:00,
2013-10-07 20:38:00,51.6,23.6,30.00,SE,124,0.0,3.6,33,0.00,,---,0.00,VWS V14.01,2013-10-08 03:38:00,
2013-10-07 20:43:00,51.3,23.3,30.00,ESE,119,4.0,6.7,33,0.00,,---,0.00,VWS V14.01,2013-10-08 03:43:00,
2013-10-07 20:49:00,50.9,23.0,30.00,East,101,4.9,4.9,33,0.00,,---,0.00,VWS V14.01,2013-10-08 03:49:00,
2013-10-07 20:54:00,50.5,22.7,30.00,East,85,2.7,3.1,33,0.00,,---,0.00,VWS V14.01,2013-10-08 03:54:00,
2013-10-07 20:59:00,50.0,22.2,30.00,NE,51,2.7,4.0,33,0.00,,---,0.00,VWS V14.01,2013-10-08 03:59:00,
2013-10-07 21:01:00,49.8,22.1,30.00,NE,45,2.7,4.0,33,0.00,,---,0.00,VWS V14.01,2013-10-08 04:01:00,
2013-10-07 21:03:00,49.8,22.1,30.00,NE,45,0.0,0.0,33,0.00,,---,0.00,VWS V14.01,2013-10-08 04:03:00,
2013-10-07 21:05:00,49.5,21.8,30.00,North,357,0.0,0.0,33,0.00,,---,0.00,VWS V14.01,2013-10-08 04:05:00,
2013-10-07 21:06:00,49.3,21.6,30.00,North,357,0.0,0.0,33,0.00,,---,0.00,VWS V14.01,2013-10-08 04:06:00,
2013-10-07 21:08:00,49.1,21.4,30.00,North,357,0.0,0.0,33,0.00,,---,0.00,VWS V14.01,2013-10-08 04:08:00,
2013-10-07 21:14:00,48.7,21.1,30.00,North,357,0.0,0.0,33,0.00,,---,0.00,VWS V14.01,2013-10-08 04:14:00,
2013-10-07 21:19:00,48.4,20.8,30.00,North,357,0.0,0.0,33,0.00,,---,0.00,VWS V14.01,2013-10-08 04:19:00,
2013-10-07 21:25:00,48.0,20.5,30.00,North,357,0.0,0.0,33,0.00,,---,0.00,VWS V14.01,2013-10-08 04:25:00,
2013-10-07 21:28:00,47.7,20.2,30.00,North,357,0.0,0.0,33,0.00,,---,0.00,VWS V14.01,2013-10-08 04:28:00,
2013-10-07 21:34:00,47.5,20.0,30.00,North,357,0.0,0.0,33,0.00,,---,0.00,VWS V14.01,2013-10-08 04:34:00,
2013-10-07 21:40:00,47.1,19.7,30.00,North,357,0.0,0.0,33,0.00,,---,0.00,VWS V14.01,2013-10-08 04:40:00,
2013-10-07 21:45:00,46.9,19.5,30.00,North,357,0.0,0.0,33,0.00,,---,0.00,VWS V14.01,2013-10-08 04:45:00,
2013-10-07 21:50:00,46.8,19.4,30.00,North,357,0.0,0.0,33,0.00,,---,0.00,VWS V14.01,2013-10-08 04:50:00,
2013-10-07 21:56:00,46.2,20.1,30.00,North,357,0.0,0.0,35,0.00,,---,0.00,VWS V14.01,2013-10-08 04:56:00,
2013-10-07 22:02:00,45.5,19.5,30.00,North,6,0.0,0.0,35,0.00,,---,0.00,VWS V14.01,2013-10-08 05:02:00,
2013-10-07 22:08:00,44.6,18.7,30.00,North,6,0.0,0.0,35,0.00,,---,0.00,VWS V14.01,2013-10-08 05:08:00,
2013-10-07 22:14:00,44.1,18.2,30.00,ENE,60,5.8,5.8,35,0.00,,---,0.00,VWS V14.01,2013-10-08 05:14:00,
2013-10-07 22:19:00,43.5,17.7,30.00,ENE,66,4.9,5.4,35,0.00,,---,0.00,VWS V14.01,2013-10-08 05:19:00,
2013-10-07 22:25:00,43.5,17.7,30.00,ENE,72,0.0,0.0,35,0.00,,---,0.00,VWS V14.01,2013-10-08 05:25:00,
2013-10-07 22:30:00,43.3,17.5,30.00,ENE,69,5.4,5.4,35,0.00,,---,0.00,VWS V14.01,2013-10-08 05:30:00,
2013-10-07 22:36:00,43.0,17.2,30.03,ENE,68,0.0,0.0,35,0.00,,---,0.00,VWS V14.01,2013-10-08 05:36:00,
2013-10-07 22:42:00,42.4,17.9,30.03,ENE,68,0.0,0.0,37,0.00,,---,0.00,VWS V14.01,2013-10-08 05:42:00,
2013-10-07 22:47:00,42.1,14.0,30.03,ENE,68,0.0,0.0,32,0.00,,---,0.00,VWS V14.01,2013-10-08 05:47:00,
2013-10-07 22:52:00,41.9,13.9,30.00,ENE,68,0.0,0.0,32,0.00,,---,0.00,VWS V14.01,2013-10-08 05:52:00,
2013-10-07 22:58:00,41.7,13.7,30.00,ENE,68,0.0,0.0,32,0.00,,---,0.00,VWS V14.01,2013-10-08 05:58:00,
2013-10-07 23:03:00,41.5,13.5,30.00,ENE,68,0.0,0.0,32,0.00,,---,0.00,VWS V14.01,2013-10-08 06:03:00,
2013-10-07 23:09:00,41.2,13.2,30.00,ENE,68,0.0,0.0,32,0.00,,---,0.00,VWS V14.01,2013-10-08 06:09:00,
2013-10-07 23:14:00,41.0,13.1,30.00,ENE,69,0.0,0.0,32,0.00,,---,0.00,VWS V14.01,2013-10-08 06:14:00,
2013-10-07 23:20:00,39.9,12.1,30.00,ENE,66,0.0,0.0,32,0.00,,---,0.00,VWS V14.01,2013-10-08 06:20:00,
2013-10-07 23:25:00,39.6,11.8,30.00,ENE,66,0.0,0.0,32,0.00,,---,0.00,VWS V14.01,2013-10-08 06:25:00,
2013-10-07 23:30:00,39.2,11.5,30.00,ENE,66,0.0,0.0,32,0.00,,---,0.00,VWS V14.01,2013-10-08 06:30:00,
2013-10-07 23:35:00,38.8,12.4,30.00,East,91,2.7,2.7,33,0.00,,---,0.00,VWS V14.01,2013-10-08 06:35:00,
2013-10-07 23:41:00,38.8,12.4,30.00,SE,124,0.0,0.0,33,0.00,,---,0.00,VWS V14.01,2013-10-08 06:41:00,
2013-10-07 23:46:00,38.5,12.1,30.00,ESE,119,0.0,0.0,33,0.00,,---,0.00,VWS V14.01,2013-10-08 06:46:00,
2013-10-07 23:52:00,38.1,11.7,30.00,ESE,115,0.0,0.0,33,0.00,,---,0.00,VWS V14.01,2013-10-08 06:52:00,
2013-10-07 23:57:00,37.9,11.6,30.00,NNE,20,0.0,0.0,33,0.00,,---,0.00,VWS V14.01,2013-10-08 06:57:00,